sensor_id;sensor_type;location;lat;lon;timestamp;P1;durP1;ratioP1;P2;durP2;ratioP2
83487;SDS011;73424;49.994;8.184;2024-01-30T00:01:43;34.23;;;21.07;;
83487;SDS011;73424;49.994;8.184;2024-01-30T00:04:09;37.78;;;21.60;;
83487;SDS011;73424;49.994;8.184;2024-01-30T00:06:34;38.27;;;21.13;;
83487;SDS011;73424;49.994;8.184;2024-01-30T00:09:00;32.53;;;18.73;;
83487;SDS011;73424;49.994;8.184;2024-01-30T00:11:25;31.27;;;18.33;;
83487;SDS011;73424;49.994;8.184;2024-01-30T00:13:51;35.20;;;19.77;;
83487;SDS011;73424;49.994;8.184;2024-01-30T00:16:23;30.98;;;20.25;;
83487;SDS011;73424;49.994;8.184;2024-01-30T00:18:49;31.60;;;18.92;;
83487;SDS011;73424;49.994;8.184;2024-01-30T00:21:15;31.60;;;17.83;;
83487;SDS011;73424;49.994;8.184;2024-01-30T00:23:41;32.05;;;18.65;;
83487;SDS011;73424;49.994;8.184;2024-01-30T00:26:06;32.40;;;18.67;;
83487;SDS011;73424;49.994;8.184;2024-01-30T00:28:31;28.87;;;17.30;;
83487;SDS011;73424;49.994;8.184;2024-01-30T00:30:56;30.15;;;17.10;;
83487;SDS011;73424;49.994;8.184;2024-01-30T00:33:22;29.15;;;17.90;;
83487;SDS011;73424;49.994;8.184;2024-01-30T00:35:47;27.40;;;17.43;;
83487;SDS011;73424;49.994;8.184;2024-01-30T00:38:12;30.97;;;18.70;;
83487;SDS011;73424;49.994;8.184;2024-01-30T00:40:37;27.97;;;16.10;;
83487;SDS011;73424;49.994;8.184;2024-01-30T00:43:03;27.57;;;18.03;;
83487;SDS011;73424;49.994;8.184;2024-01-30T00:45:28;30.13;;;18.15;;
83487;SDS011;73424;49.994;8.184;2024-01-30T00:47:53;30.27;;;18.97;;
83487;SDS011;73424;49.994;8.184;2024-01-30T00:50:19;31.90;;;18.63;;
83487;SDS011;73424;49.994;8.184;2024-01-30T00:52:44;35.67;;;19.02;;
83487;SDS011;73424;49.994;8.184;2024-01-30T00:55:10;32.80;;;18.77;;
83487;SDS011;73424;49.994;8.184;2024-01-30T00:57:36;34.13;;;18.42;;
83487;SDS011;73424;49.994;8.184;2024-01-30T01:00:01;36.22;;;20.17;;
83487;SDS011;73424;49.994;8.184;2024-01-30T01:02:26;35.63;;;20.60;;
83487;SDS011;73424;49.994;8.184;2024-01-30T01:04:52;36.00;;;20.47;;
83487;SDS011;73424;49.994;8.184;2024-01-30T01:07:17;32.60;;;18.27;;
83487;SDS011;73424;49.994;8.184;2024-01-30T01:09:42;31.17;;;17.80;;
83487;SDS011;73424;49.994;8.184;2024-01-30T01:12:07;29.55;;;18.33;;
83487;SDS011;73424;49.994;8.184;2024-01-30T01:14:33;31.27;;;19.40;;
83487;SDS011;73424;49.994;8.184;2024-01-30T01:16:58;31.00;;;18.35;;
83487;SDS011;73424;49.994;8.184;2024-01-30T01:19:23;27.07;;;17.30;;
83487;SDS011;73424;49.994;8.184;2024-01-30T01:21:48;29.37;;;18.03;;
83487;SDS011;73424;49.994;8.184;2024-01-30T01:24:14;29.63;;;16.90;;
83487;SDS011;73424;49.994;8.184;2024-01-30T01:26:39;31.25;;;18.63;;
83487;SDS011;73424;49.994;8.184;2024-01-30T01:29:05;28.57;;;18.20;;
83487;SDS011;73424;49.994;8.184;2024-01-30T01:31:35;33.90;;;20.02;;
83487;SDS011;73424;49.994;8.184;2024-01-30T01:34:05;35.75;;;19.83;;
83487;SDS011;73424;49.994;8.184;2024-01-30T01:36:30;34.88;;;20.40;;
83487;SDS011;73424;49.994;8.184;2024-01-30T01:38:56;31.73;;;18.37;;
83487;SDS011;73424;49.994;8.184;2024-01-30T01:41:21;30.08;;;17.35;;
83487;SDS011;73424;49.994;8.184;2024-01-30T01:43:46;32.20;;;18.43;;
83487;SDS011;73424;49.994;8.184;2024-01-30T01:46:12;36.63;;;18.20;;
83487;SDS011;73424;49.994;8.184;2024-01-30T01:48:37;31.02;;;19.50;;
83487;SDS011;73424;49.994;8.184;2024-01-30T01:51:04;39.25;;;20.30;;
83487;SDS011;73424;49.994;8.184;2024-01-30T01:53:30;34.30;;;18.95;;
83487;SDS011;73424;49.994;8.184;2024-01-30T01:55:56;31.42;;;18.55;;
83487;SDS011;73424;49.994;8.184;2024-01-30T01:58:22;32.88;;;18.25;;
83487;SDS011;73424;49.994;8.184;2024-01-30T02:00:48;28.92;;;17.45;;
83487;SDS011;73424;49.994;8.184;2024-01-30T02:03:15;30.23;;;18.58;;
83487;SDS011;73424;49.994;8.184;2024-01-30T02:05:43;30.13;;;19.05;;
83487;SDS011;73424;49.994;8.184;2024-01-30T02:08:08;27.67;;;17.70;;
83487;SDS011;73424;49.994;8.184;2024-01-30T02:10:34;26.35;;;17.50;;
83487;SDS011;73424;49.994;8.184;2024-01-30T02:12:59;27.40;;;15.33;;
83487;SDS011;73424;49.994;8.184;2024-01-30T02:15:24;27.23;;;15.00;;
83487;SDS011;73424;49.994;8.184;2024-01-30T02:17:50;29.00;;;16.57;;
83487;SDS011;73424;49.994;8.184;2024-01-30T02:20:15;28.50;;;16.83;;
83487;SDS011;73424;49.994;8.184;2024-01-30T02:22:40;31.00;;;16.90;;
83487;SDS011;73424;49.994;8.184;2024-01-30T02:25:07;29.98;;;17.65;;
83487;SDS011;73424;49.994;8.184;2024-01-30T02:27:33;25.65;;;16.85;;
83487;SDS011;73424;49.994;8.184;2024-01-30T02:29:58;31.47;;;16.77;;
83487;SDS011;73424;49.994;8.184;2024-01-30T02:32:24;28.00;;;17.75;;
83487;SDS011;73424;49.994;8.184;2024-01-30T02:34:49;30.67;;;16.13;;
83487;SDS011;73424;49.994;8.184;2024-01-30T02:37:14;27.80;;;17.00;;
83487;SDS011;73424;49.994;8.184;2024-01-30T02:39:41;29.00;;;18.15;;
83487;SDS011;73424;49.994;8.184;2024-01-30T02:42:06;33.27;;;18.87;;
83487;SDS011;73424;49.994;8.184;2024-01-30T02:44:31;38.20;;;20.00;;
83487;SDS011;73424;49.994;8.184;2024-01-30T02:46:57;32.63;;;17.98;;
83487;SDS011;73424;49.994;8.184;2024-01-30T02:49:22;32.50;;;18.83;;
83487;SDS011;73424;49.994;8.184;2024-01-30T02:51:47;31.90;;;18.57;;
83487;SDS011;73424;49.994;8.184;2024-01-30T02:54:13;31.15;;;17.10;;
83487;SDS011;73424;49.994;8.184;2024-01-30T02:56:38;29.42;;;16.27;;
83487;SDS011;73424;49.994;8.184;2024-01-30T02:59:03;26.03;;;17.73;;
83487;SDS011;73424;49.994;8.184;2024-01-30T03:01:28;27.33;;;18.07;;
83487;SDS011;73424;49.994;8.184;2024-01-30T03:03:54;27.80;;;15.43;;
83487;SDS011;73424;49.994;8.184;2024-01-30T03:06:19;26.43;;;16.67;;
83487;SDS011;73424;49.994;8.184;2024-01-30T03:08:45;26.88;;;16.70;;
83487;SDS011;73424;49.994;8.184;2024-01-30T03:11:10;29.30;;;17.13;;
83487;SDS011;73424;49.994;8.184;2024-01-30T03:13:35;32.43;;;17.83;;
83487;SDS011;73424;49.994;8.184;2024-01-30T03:16:01;29.43;;;17.37;;
83487;SDS011;73424;49.994;8.184;2024-01-30T03:18:26;28.75;;;17.40;;
83487;SDS011;73424;49.994;8.184;2024-01-30T03:20:51;28.10;;;16.73;;
83487;SDS011;73424;49.994;8.184;2024-01-30T03:23:17;30.48;;;16.63;;
83487;SDS011;73424;49.994;8.184;2024-01-30T03:25:42;30.87;;;17.53;;
83487;SDS011;73424;49.994;8.184;2024-01-30T03:28:07;28.83;;;16.80;;
83487;SDS011;73424;49.994;8.184;2024-01-30T03:30:34;25.90;;;15.80;;
83487;SDS011;73424;49.994;8.184;2024-01-30T03:33:00;28.08;;;16.95;;
83487;SDS011;73424;49.994;8.184;2024-01-30T03:35:25;26.53;;;17.40;;
83487;SDS011;73424;49.994;8.184;2024-01-30T03:37:50;26.00;;;17.70;;
83487;SDS011;73424;49.994;8.184;2024-01-30T03:40:15;30.37;;;18.00;;
83487;SDS011;73424;49.994;8.184;2024-01-30T03:42:41;29.02;;;16.70;;
83487;SDS011;73424;49.994;8.184;2024-01-30T03:45:06;26.20;;;16.57;;
83487;SDS011;73424;49.994;8.184;2024-01-30T03:47:32;25.63;;;15.52;;
83487;SDS011;73424;49.994;8.184;2024-01-30T03:49:57;28.23;;;16.73;;
83487;SDS011;73424;49.994;8.184;2024-01-30T03:52:23;29.87;;;16.23;;
83487;SDS011;73424;49.994;8.184;2024-01-30T03:54:48;30.20;;;17.38;;
83487;SDS011;73424;49.994;8.184;2024-01-30T03:57:13;28.13;;;17.92;;
83487;SDS011;73424;49.994;8.184;2024-01-30T03:59:41;25.20;;;15.33;;
83487;SDS011;73424;49.994;8.184;2024-01-30T04:02:07;26.98;;;16.60;;
83487;SDS011;73424;49.994;8.184;2024-01-30T04:04:35;25.60;;;16.38;;
83487;SDS011;73424;49.994;8.184;2024-01-30T04:07:00;28.40;;;15.97;;
83487;SDS011;73424;49.994;8.184;2024-01-30T04:09:25;25.70;;;16.03;;
83487;SDS011;73424;49.994;8.184;2024-01-30T04:11:51;28.65;;;15.93;;
83487;SDS011;73424;49.994;8.184;2024-01-30T04:14:16;25.60;;;16.30;;
83487;SDS011;73424;49.994;8.184;2024-01-30T04:16:42;24.23;;;15.10;;
83487;SDS011;73424;49.994;8.184;2024-01-30T04:19:07;26.20;;;16.13;;
83487;SDS011;73424;49.994;8.184;2024-01-30T04:21:32;28.43;;;16.17;;
83487;SDS011;73424;49.994;8.184;2024-01-30T04:23:57;28.17;;;16.97;;
83487;SDS011;73424;49.994;8.184;2024-01-30T04:26:23;25.90;;;15.70;;
83487;SDS011;73424;49.994;8.184;2024-01-30T04:28:50;30.25;;;16.45;;
83487;SDS011;73424;49.994;8.184;2024-01-30T04:31:16;26.67;;;16.75;;
83487;SDS011;73424;49.994;8.184;2024-01-30T04:33:41;24.43;;;15.30;;
83487;SDS011;73424;49.994;8.184;2024-01-30T04:36:08;27.90;;;16.47;;
83487;SDS011;73424;49.994;8.184;2024-01-30T04:38:35;29.98;;;18.10;;
83487;SDS011;73424;49.994;8.184;2024-01-30T04:41:00;27.88;;;16.55;;
83487;SDS011;73424;49.994;8.184;2024-01-30T04:43:25;28.10;;;17.33;;
83487;SDS011;73424;49.994;8.184;2024-01-30T04:45:51;29.58;;;16.73;;
83487;SDS011;73424;49.994;8.184;2024-01-30T04:48:16;31.97;;;16.73;;
83487;SDS011;73424;49.994;8.184;2024-01-30T04:50:42;28.43;;;16.77;;
83487;SDS011;73424;49.994;8.184;2024-01-30T04:53:07;29.13;;;16.57;;
83487;SDS011;73424;49.994;8.184;2024-01-30T04:55:32;30.15;;;16.63;;
83487;SDS011;73424;49.994;8.184;2024-01-30T04:57:58;27.57;;;15.73;;
83487;SDS011;73424;49.994;8.184;2024-01-30T05:00:23;31.13;;;17.65;;
83487;SDS011;73424;49.994;8.184;2024-01-30T05:02:48;30.03;;;17.37;;
83487;SDS011;73424;49.994;8.184;2024-01-30T05:05:14;27.63;;;15.57;;
83487;SDS011;73424;49.994;8.184;2024-01-30T05:07:41;27.45;;;15.73;;
83487;SDS011;73424;49.994;8.184;2024-01-30T05:10:06;31.92;;;18.30;;
83487;SDS011;73424;49.994;8.184;2024-01-30T05:12:31;33.70;;;19.08;;
83487;SDS011;73424;49.994;8.184;2024-01-30T05:14:57;32.30;;;17.43;;
83487;SDS011;73424;49.994;8.184;2024-01-30T05:17:22;27.43;;;16.57;;
83487;SDS011;73424;49.994;8.184;2024-01-30T05:19:47;29.93;;;16.90;;
83487;SDS011;73424;49.994;8.184;2024-01-30T05:22:12;26.67;;;15.80;;
83487;SDS011;73424;49.994;8.184;2024-01-30T05:24:40;31.00;;;16.42;;
83487;SDS011;73424;49.994;8.184;2024-01-30T05:27:07;28.33;;;16.98;;
83487;SDS011;73424;49.994;8.184;2024-01-30T05:29:32;27.47;;;16.40;;
83487;SDS011;73424;49.994;8.184;2024-01-30T05:31:58;27.58;;;16.15;;
83487;SDS011;73424;49.994;8.184;2024-01-30T05:34:23;31.87;;;18.63;;
83487;SDS011;73424;49.994;8.184;2024-01-30T05:36:48;30.85;;;17.60;;
83487;SDS011;73424;49.994;8.184;2024-01-30T05:39:14;28.77;;;16.37;;
83487;SDS011;73424;49.994;8.184;2024-01-30T05:41:39;35.15;;;18.00;;
83487;SDS011;73424;49.994;8.184;2024-01-30T05:44:04;30.03;;;17.33;;
83487;SDS011;73424;49.994;8.184;2024-01-30T05:46:30;30.02;;;19.48;;
83487;SDS011;73424;49.994;8.184;2024-01-30T05:48:55;28.73;;;17.00;;
83487;SDS011;73424;49.994;8.184;2024-01-30T05:51:20;31.95;;;16.75;;
83487;SDS011;73424;49.994;8.184;2024-01-30T05:53:46;25.50;;;16.00;;
83487;SDS011;73424;49.994;8.184;2024-01-30T05:56:11;28.00;;;17.37;;
83487;SDS011;73424;49.994;8.184;2024-01-30T05:58:36;27.53;;;16.63;;
83487;SDS011;73424;49.994;8.184;2024-01-30T06:01:03;26.83;;;15.27;;
83487;SDS011;73424;49.994;8.184;2024-01-30T06:03:32;30.70;;;17.33;;
83487;SDS011;73424;49.994;8.184;2024-01-30T06:05:57;27.57;;;15.37;;
83487;SDS011;73424;49.994;8.184;2024-01-30T06:08:23;22.45;;;14.10;;
83487;SDS011;73424;49.994;8.184;2024-01-30T06:10:48;22.13;;;14.97;;
83487;SDS011;73424;49.994;8.184;2024-01-30T06:13:14;26.10;;;14.07;;
83487;SDS011;73424;49.994;8.184;2024-01-30T06:15:39;26.30;;;14.55;;
83487;SDS011;73424;49.994;8.184;2024-01-30T06:18:05;28.10;;;16.38;;
83487;SDS011;73424;49.994;8.184;2024-01-30T06:20:30;26.08;;;17.00;;
83487;SDS011;73424;49.994;8.184;2024-01-30T06:22:55;27.30;;;15.05;;
83487;SDS011;73424;49.994;8.184;2024-01-30T06:25:21;28.13;;;15.73;;
83487;SDS011;73424;49.994;8.184;2024-01-30T06:27:46;22.95;;;15.45;;
83487;SDS011;73424;49.994;8.184;2024-01-30T06:30:11;23.88;;;15.85;;
83487;SDS011;73424;49.994;8.184;2024-01-30T06:32:37;30.77;;;17.38;;
83487;SDS011;73424;49.994;8.184;2024-01-30T06:35:03;26.73;;;16.23;;
83487;SDS011;73424;49.994;8.184;2024-01-30T06:37:30;24.23;;;15.25;;
83487;SDS011;73424;49.994;8.184;2024-01-30T06:39:56;25.02;;;14.95;;
83487;SDS011;73424;49.994;8.184;2024-01-30T06:42:21;26.55;;;14.93;;
83487;SDS011;73424;49.994;8.184;2024-01-30T06:44:46;24.80;;;14.13;;
83487;SDS011;73424;49.994;8.184;2024-01-30T06:47:12;22.93;;;13.90;;
83487;SDS011;73424;49.994;8.184;2024-01-30T06:49:37;21.85;;;14.25;;
83487;SDS011;73424;49.994;8.184;2024-01-30T06:52:04;24.42;;;15.07;;
83487;SDS011;73424;49.994;8.184;2024-01-30T06:54:30;25.17;;;14.63;;
83487;SDS011;73424;49.994;8.184;2024-01-30T06:56:56;20.63;;;15.30;;
83487;SDS011;73424;49.994;8.184;2024-01-30T06:59:21;21.27;;;13.88;;
83487;SDS011;73424;49.994;8.184;2024-01-30T07:01:47;24.33;;;15.02;;
83487;SDS011;73424;49.994;8.184;2024-01-30T07:04:12;24.40;;;14.50;;
83487;SDS011;73424;49.994;8.184;2024-01-30T07:06:37;22.13;;;14.80;;
83487;SDS011;73424;49.994;8.184;2024-01-30T07:09:02;24.40;;;14.55;;
83487;SDS011;73424;49.994;8.184;2024-01-30T07:11:28;29.17;;;17.05;;
83487;SDS011;73424;49.994;8.184;2024-01-30T07:13:54;24.10;;;16.17;;
83487;SDS011;73424;49.994;8.184;2024-01-30T07:16:19;28.25;;;15.82;;
83487;SDS011;73424;49.994;8.184;2024-01-30T07:18:44;26.98;;;15.27;;
83487;SDS011;73424;49.994;8.184;2024-01-30T07:21:11;25.27;;;15.57;;
83487;SDS011;73424;49.994;8.184;2024-01-30T07:23:55;23.85;;;15.93;;
83487;SDS011;73424;49.994;8.184;2024-01-30T07:26:20;23.52;;;15.95;;
83487;SDS011;73424;49.994;8.184;2024-01-30T07:28:45;29.30;;;16.93;;
83487;SDS011;73424;49.994;8.184;2024-01-30T07:31:11;29.93;;;18.87;;
83487;SDS011;73424;49.994;8.184;2024-01-30T07:33:36;25.10;;;16.07;;
83487;SDS011;73424;49.994;8.184;2024-01-30T07:36:01;27.35;;;17.05;;
83487;SDS011;73424;49.994;8.184;2024-01-30T07:38:27;27.33;;;16.50;;
83487;SDS011;73424;49.994;8.184;2024-01-30T07:40:53;25.13;;;17.40;;
83487;SDS011;73424;49.994;8.184;2024-01-30T07:43:19;27.02;;;16.65;;
83487;SDS011;73424;49.994;8.184;2024-01-30T07:45:45;28.42;;;17.95;;
83487;SDS011;73424;49.994;8.184;2024-01-30T07:48:10;27.35;;;17.23;;
83487;SDS011;73424;49.994;8.184;2024-01-30T07:50:36;23.98;;;15.18;;
83487;SDS011;73424;49.994;8.184;2024-01-30T07:53:02;21.20;;;14.63;;
83487;SDS011;73424;49.994;8.184;2024-01-30T07:55:27;26.08;;;15.75;;
83487;SDS011;73424;49.994;8.184;2024-01-30T07:57:54;27.63;;;17.33;;
83487;SDS011;73424;49.994;8.184;2024-01-30T08:00:20;28.63;;;17.35;;
83487;SDS011;73424;49.994;8.184;2024-01-30T08:02:46;27.70;;;15.98;;
83487;SDS011;73424;49.994;8.184;2024-01-30T08:05:11;26.37;;;16.63;;
83487;SDS011;73424;49.994;8.184;2024-01-30T08:07:37;27.10;;;16.40;;
83487;SDS011;73424;49.994;8.184;2024-01-30T08:10:02;30.55;;;19.27;;
83487;SDS011;73424;49.994;8.184;2024-01-30T08:12:28;35.22;;;20.55;;
83487;SDS011;73424;49.994;8.184;2024-01-30T08:14:54;34.65;;;20.67;;
83487;SDS011;73424;49.994;8.184;2024-01-30T08:17:19;29.23;;;18.97;;
83487;SDS011;73424;49.994;8.184;2024-01-30T08:19:44;34.17;;;20.27;;
83487;SDS011;73424;49.994;8.184;2024-01-30T08:22:09;35.17;;;22.00;;
83487;SDS011;73424;49.994;8.184;2024-01-30T08:24:37;37.50;;;22.05;;
83487;SDS011;73424;49.994;8.184;2024-01-30T08:27:02;39.80;;;21.77;;
83487;SDS011;73424;49.994;8.184;2024-01-30T08:29:30;35.13;;;21.75;;
83487;SDS011;73424;49.994;8.184;2024-01-30T08:31:55;39.58;;;22.38;;
83487;SDS011;73424;49.994;8.184;2024-01-30T08:34:20;35.60;;;22.20;;
83487;SDS011;73424;49.994;8.184;2024-01-30T08:36:46;35.60;;;21.67;;
83487;SDS011;73424;49.994;8.184;2024-01-30T08:39:11;38.10;;;22.23;;
83487;SDS011;73424;49.994;8.184;2024-01-30T08:41:36;35.40;;;24.10;;
83487;SDS011;73424;49.994;8.184;2024-01-30T08:44:02;36.75;;;22.17;;
83487;SDS011;73424;49.994;8.184;2024-01-30T08:46:28;36.67;;;22.10;;
83487;SDS011;73424;49.994;8.184;2024-01-30T08:48:53;33.90;;;21.07;;
83487;SDS011;73424;49.994;8.184;2024-01-30T08:51:18;36.55;;;22.52;;
83487;SDS011;73424;49.994;8.184;2024-01-30T08:53:44;33.90;;;21.20;;
83487;SDS011;73424;49.994;8.184;2024-01-30T08:56:09;31.50;;;20.03;;
83487;SDS011;73424;49.994;8.184;2024-01-30T08:58:34;32.58;;;20.77;;
83487;SDS011;73424;49.994;8.184;2024-01-30T09:01:00;34.67;;;19.80;;
83487;SDS011;73424;49.994;8.184;2024-01-30T09:03:25;35.23;;;20.23;;
83487;SDS011;73424;49.994;8.184;2024-01-30T09:05:50;32.20;;;19.45;;
83487;SDS011;73424;49.994;8.184;2024-01-30T09:08:16;29.98;;;19.75;;
83487;SDS011;73424;49.994;8.184;2024-01-30T09:10:41;31.38;;;19.50;;
83487;SDS011;73424;49.994;8.184;2024-01-30T09:13:07;30.77;;;19.55;;
83487;SDS011;73424;49.994;8.184;2024-01-30T09:15:32;29.15;;;17.95;;
83487;SDS011;73424;49.994;8.184;2024-01-30T09:17:57;29.70;;;17.83;;
83487;SDS011;73424;49.994;8.184;2024-01-30T09:20:23;28.30;;;18.43;;
83487;SDS011;73424;49.994;8.184;2024-01-30T09:22:50;29.33;;;17.42;;
83487;SDS011;73424;49.994;8.184;2024-01-30T09:25:17;27.23;;;18.05;;
83487;SDS011;73424;49.994;8.184;2024-01-30T09:27:44;29.63;;;18.45;;
83487;SDS011;73424;49.994;8.184;2024-01-30T09:30:11;27.65;;;18.08;;
83487;SDS011;73424;49.994;8.184;2024-01-30T09:32:44;26.08;;;18.27;;
83487;SDS011;73424;49.994;8.184;2024-01-30T09:35:09;27.38;;;19.00;;
83487;SDS011;73424;49.994;8.184;2024-01-30T09:37:35;27.92;;;19.17;;
83487;SDS011;73424;49.994;8.184;2024-01-30T09:40:00;28.47;;;18.73;;
83487;SDS011;73424;49.994;8.184;2024-01-30T09:42:28;28.70;;;19.55;;
83487;SDS011;73424;49.994;8.184;2024-01-30T09:45:02;29.02;;;19.90;;
83487;SDS011;73424;49.994;8.184;2024-01-30T09:47:39;28.33;;;19.30;;
83487;SDS011;73424;49.994;8.184;2024-01-30T09:50:08;24.80;;;17.35;;
83487;SDS011;73424;49.994;8.184;2024-01-30T09:52:36;25.98;;;18.20;;
83487;SDS011;73424;49.994;8.184;2024-01-30T09:55:04;23.60;;;17.02;;
83487;SDS011;73424;49.994;8.184;2024-01-30T09:57:30;26.10;;;18.10;;
83487;SDS011;73424;49.994;8.184;2024-01-30T09:59:55;27.25;;;17.55;;
83487;SDS011;73424;49.994;8.184;2024-01-30T10:02:21;22.45;;;16.17;;
83487;SDS011;73424;49.994;8.184;2024-01-30T10:04:50;22.58;;;16.75;;
83487;SDS011;73424;49.994;8.184;2024-01-30T10:07:16;22.80;;;16.92;;
83487;SDS011;73424;49.994;8.184;2024-01-30T10:09:42;23.05;;;16.40;;
83487;SDS011;73424;49.994;8.184;2024-01-30T10:12:08;26.30;;;16.23;;
83487;SDS011;73424;49.994;8.184;2024-01-30T10:14:37;23.52;;;16.38;;
83487;SDS011;73424;49.994;8.184;2024-01-30T10:17:07;25.35;;;16.27;;
83487;SDS011;73424;49.994;8.184;2024-01-30T10:19:33;24.38;;;16.45;;
83487;SDS011;73424;49.994;8.184;2024-01-30T10:22:02;23.65;;;15.90;;
83487;SDS011;73424;49.994;8.184;2024-01-30T10:24:28;24.10;;;17.02;;
83487;SDS011;73424;49.994;8.184;2024-01-30T10:26:54;24.52;;;16.48;;
83487;SDS011;73424;49.994;8.184;2024-01-30T10:29:20;24.92;;;16.23;;
83487;SDS011;73424;49.994;8.184;2024-01-30T10:31:45;21.08;;;15.23;;
83487;SDS011;73424;49.994;8.184;2024-01-30T10:34:12;26.67;;;17.63;;
83487;SDS011;73424;49.994;8.184;2024-01-30T10:36:41;22.55;;;15.65;;
83487;SDS011;73424;49.994;8.184;2024-01-30T10:39:11;24.23;;;16.13;;
83487;SDS011;73424;49.994;8.184;2024-01-30T10:41:42;23.60;;;17.20;;
83487;SDS011;73424;49.994;8.184;2024-01-30T10:44:09;24.67;;;16.42;;
83487;SDS011;73424;49.994;8.184;2024-01-30T10:46:35;25.75;;;15.43;;
83487;SDS011;73424;49.994;8.184;2024-01-30T10:49:03;20.95;;;16.20;;
83487;SDS011;73424;49.994;8.184;2024-01-30T10:51:29;23.25;;;16.38;;
83487;SDS011;73424;49.994;8.184;2024-01-30T10:53:56;22.63;;;16.05;;
83487;SDS011;73424;49.994;8.184;2024-01-30T10:56:22;23.48;;;16.13;;
83487;SDS011;73424;49.994;8.184;2024-01-30T10:58:49;24.08;;;16.65;;
83487;SDS011;73424;49.994;8.184;2024-01-30T11:01:16;22.20;;;17.55;;
83487;SDS011;73424;49.994;8.184;2024-01-30T11:03:42;21.90;;;16.90;;
83487;SDS011;73424;49.994;8.184;2024-01-30T11:06:10;24.85;;;19.23;;
83487;SDS011;73424;49.994;8.184;2024-01-30T11:08:38;22.33;;;16.83;;
83487;SDS011;73424;49.994;8.184;2024-01-30T11:11:04;24.30;;;18.27;;
83487;SDS011;73424;49.994;8.184;2024-01-30T11:16:05;24.92;;;16.08;;
83487;SDS011;73424;49.994;8.184;2024-01-30T11:18:31;27.70;;;17.77;;
83487;SDS011;73424;49.994;8.184;2024-01-30T11:20:58;26.83;;;17.17;;
83487;SDS011;73424;49.994;8.184;2024-01-30T11:23:26;25.33;;;17.38;;
83487;SDS011;73424;49.994;8.184;2024-01-30T11:25:52;25.15;;;18.75;;
83487;SDS011;73424;49.994;8.184;2024-01-30T11:28:18;23.55;;;16.60;;
83487;SDS011;73424;49.994;8.184;2024-01-30T11:30:43;25.27;;;18.55;;
83487;SDS011;73424;49.994;8.184;2024-01-30T11:33:13;24.45;;;17.98;;
83487;SDS011;73424;49.994;8.184;2024-01-30T11:35:43;28.80;;;17.70;;
83487;SDS011;73424;49.994;8.184;2024-01-30T11:40:36;24.60;;;17.30;;
83487;SDS011;73424;49.994;8.184;2024-01-30T11:43:03;26.10;;;18.27;;
83487;SDS011;73424;49.994;8.184;2024-01-30T11:45:29;29.92;;;19.35;;
83487;SDS011;73424;49.994;8.184;2024-01-30T11:47:55;26.00;;;19.63;;
83487;SDS011;73424;49.994;8.184;2024-01-30T11:50:21;30.17;;;19.88;;
83487;SDS011;73424;49.994;8.184;2024-01-30T11:52:47;27.75;;;19.95;;
83487;SDS011;73424;49.994;8.184;2024-01-30T11:55:13;25.60;;;18.33;;
83487;SDS011;73424;49.994;8.184;2024-01-30T11:57:39;25.92;;;17.92;;
83487;SDS011;73424;49.994;8.184;2024-01-30T12:00:05;23.63;;;17.23;;
83487;SDS011;73424;49.994;8.184;2024-01-30T12:05:05;24.83;;;16.55;;
83487;SDS011;73424;49.994;8.184;2024-01-30T12:07:31;23.95;;;17.15;;
83487;SDS011;73424;49.994;8.184;2024-01-30T12:09:57;27.52;;;17.08;;
83487;SDS011;73424;49.994;8.184;2024-01-30T12:12:23;24.50;;;17.23;;
83487;SDS011;73424;49.994;8.184;2024-01-30T12:14:50;26.45;;;18.35;;
83487;SDS011;73424;49.994;8.184;2024-01-30T12:17:29;24.30;;;17.77;;
83487;SDS011;73424;49.994;8.184;2024-01-30T12:25:09;24.60;;;17.00;;
83487;SDS011;73424;49.994;8.184;2024-01-30T12:27:35;26.85;;;18.20;;
83487;SDS011;73424;49.994;8.184;2024-01-30T12:30:04;25.25;;;17.80;;
83487;SDS011;73424;49.994;8.184;2024-01-30T12:32:30;23.77;;;17.90;;
83487;SDS011;73424;49.994;8.184;2024-01-30T12:34:56;22.63;;;16.53;;
83487;SDS011;73424;49.994;8.184;2024-01-30T12:37:22;24.45;;;16.88;;
83487;SDS011;73424;49.994;8.184;2024-01-30T12:39:49;29.10;;;16.52;;
83487;SDS011;73424;49.994;8.184;2024-01-30T12:42:15;24.67;;;16.50;;
83487;SDS011;73424;49.994;8.184;2024-01-30T12:44:41;23.67;;;17.25;;
83487;SDS011;73424;49.994;8.184;2024-01-30T12:47:08;24.30;;;17.73;;
83487;SDS011;73424;49.994;8.184;2024-01-30T12:49:34;23.13;;;17.13;;
83487;SDS011;73424;49.994;8.184;2024-01-30T12:52:00;26.47;;;17.63;;
83487;SDS011;73424;49.994;8.184;2024-01-30T12:54:25;24.67;;;18.00;;
83487;SDS011;73424;49.994;8.184;2024-01-30T12:56:50;26.15;;;18.02;;
83487;SDS011;73424;49.994;8.184;2024-01-30T12:59:16;23.47;;;17.97;;
83487;SDS011;73424;49.994;8.184;2024-01-30T13:01:41;25.63;;;18.38;;
83487;SDS011;73424;49.994;8.184;2024-01-30T13:04:06;27.77;;;18.50;;
83487;SDS011;73424;49.994;8.184;2024-01-30T13:06:32;28.65;;;19.27;;
83487;SDS011;73424;49.994;8.184;2024-01-30T13:08:57;26.50;;;19.38;;
83487;SDS011;73424;49.994;8.184;2024-01-30T13:11:22;26.70;;;17.80;;
83487;SDS011;73424;49.994;8.184;2024-01-30T13:13:50;27.77;;;19.55;;
83487;SDS011;73424;49.994;8.184;2024-01-30T13:16:15;26.43;;;18.43;;
83487;SDS011;73424;49.994;8.184;2024-01-30T13:18:40;27.30;;;20.02;;
83487;SDS011;73424;49.994;8.184;2024-01-30T13:21:06;24.52;;;18.65;;
83487;SDS011;73424;49.994;8.184;2024-01-30T13:23:32;24.80;;;17.75;;
83487;SDS011;73424;49.994;8.184;2024-01-30T13:25:58;29.92;;;19.80;;
83487;SDS011;73424;49.994;8.184;2024-01-30T13:28:23;25.77;;;19.58;;
83487;SDS011;73424;49.994;8.184;2024-01-30T13:30:50;26.80;;;19.25;;
83487;SDS011;73424;49.994;8.184;2024-01-30T13:33:15;25.77;;;18.13;;
83487;SDS011;73424;49.994;8.184;2024-01-30T13:35:41;26.10;;;19.02;;
83487;SDS011;73424;49.994;8.184;2024-01-30T13:38:07;28.67;;;20.77;;
83487;SDS011;73424;49.994;8.184;2024-01-30T13:40:33;27.50;;;19.02;;
83487;SDS011;73424;49.994;8.184;2024-01-30T13:42:58;28.73;;;20.70;;
83487;SDS011;73424;49.994;8.184;2024-01-30T13:45:23;30.67;;;19.80;;
83487;SDS011;73424;49.994;8.184;2024-01-30T13:47:48;24.90;;;18.67;;
83487;SDS011;73424;49.994;8.184;2024-01-30T13:50:14;28.67;;;20.20;;
83487;SDS011;73424;49.994;8.184;2024-01-30T13:52:41;28.20;;;19.30;;
83487;SDS011;73424;49.994;8.184;2024-01-30T13:55:07;26.60;;;18.92;;
83487;SDS011;73424;49.994;8.184;2024-01-30T13:57:32;28.15;;;20.23;;
83487;SDS011;73424;49.994;8.184;2024-01-30T14:00:00;29.40;;;20.80;;
83487;SDS011;73424;49.994;8.184;2024-01-30T14:02:26;27.42;;;19.85;;
83487;SDS011;73424;49.994;8.184;2024-01-30T14:04:51;31.08;;;20.88;;
83487;SDS011;73424;49.994;8.184;2024-01-30T14:07:16;28.73;;;20.50;;
83487;SDS011;73424;49.994;8.184;2024-01-30T14:09:43;31.63;;;21.17;;
83487;SDS011;73424;49.994;8.184;2024-01-30T14:12:09;29.13;;;20.73;;
83487;SDS011;73424;49.994;8.184;2024-01-30T14:14:34;28.57;;;19.70;;
83487;SDS011;73424;49.994;8.184;2024-01-30T14:17:00;25.92;;;17.77;;
83487;SDS011;73424;49.994;8.184;2024-01-30T14:19:35;29.17;;;22.23;;
83487;SDS011;73424;49.994;8.184;2024-01-30T14:22:01;29.48;;;23.13;;
83487;SDS011;73424;49.994;8.184;2024-01-30T14:24:27;27.40;;;23.17;;
83487;SDS011;73424;49.994;8.184;2024-01-30T14:26:52;29.23;;;21.92;;